Time;durP1;ratioP1;P1;durP2;ratioP2;P2;SDS_P1;SDS_P2;PMS_P1;PMS_P2;Temp;Humidity;BMP_temperature;BMP_pressure;BME280_temperature;BME280_humidity;BME280_pressure;Samples;Min_cycle;Max_cycle;Signal;HPM_P1;HPM_P2
2022/09/06 00:01:13;;;;;;;2.65;1.00;;;8.70;99.90;;;;;;4940561;29;20468;-84
2022/09/06 00:03:41;;;;;;;1.30;0.90;;;8.70;99.90;;;;;;4959298;28;20441;-84
2022/09/06 00:06:15;;;;;;;0.80;0.80;;;8.70;99.90;;;;;;4940269;29;20413;-84
2022/09/06 00:08:44;;;;;;;1.30;0.88;;;8.70;99.90;;;;;;4937338;28;20497;-83
2022/09/06 00:11:12;;;;;;;2.40;1.10;;;8.70;99.90;;;;;;4943523;29;20496;-84
2022/09/06 00:13:40;;;;;;;2.80;1.10;;;8.70;99.90;;;;;;4945241;28;20405;-85
2022/09/06 00:16:10;;;;;;;2.20;1.00;;;8.70;99.90;;;;;;4934061;29;20465;-84
2022/09/06 00:18:39;;;;;;;1.52;1.10;;;8.70;99.90;;;;;;4933187;29;20504;-85
2022/09/06 00:21:19;;;;;;;1.52;0.90;;;8.70;99.90;;;;;;4927369;29;20410;-83
2022/09/06 00:23:47;;;;;;;2.42;1.00;;;8.70;99.90;;;;;;4938993;29;20410;-86
2022/09/06 00:26:15;;;;;;;2.17;0.90;;;8.70;99.90;;;;;;4932263;29;20426;-84
2022/09/06 00:28:43;;;;;;;2.58;0.93;;;8.70;99.90;;;;;;4939618;28;20405;-85
2022/09/06 00:31:17;;;;;;;2.22;0.90;;;8.70;99.90;;;;;;4923796;29;20414;-84
2022/09/06 00:33:45;;;;;;;2.80;1.10;;;8.70;99.90;;;;;;4934685;29;20505;-87
2022/09/06 00:36:14;;;;;;;3.03;1.15;;;8.70;99.90;;;;;;4921153;29;20463;-87
2022/09/06 00:38:42;;;;;;;2.10;0.98;;;8.70;99.90;;;;;;4922684;29;20411;-86
2022/09/06 00:41:12;;;;;;;1.63;0.97;;;8.70;99.90;;;;;;4927900;29;20909;-86
2022/09/06 00:43:41;;;;;;;1.50;0.80;;;8.70;99.90;;;;;;4940033;28;20455;-86
2022/09/06 00:46:13;;;;;;;0.87;0.80;;;8.70;99.90;;;;;;4925339;29;20441;-86
2022/09/06 00:48:43;;;;;;;1.90;0.90;;;8.70;99.90;;;;;;4933417;29;20406;-85
2022/09/06 00:51:14;;;;;;;2.22;0.90;;;8.70;99.90;;;;;;4934345;29;20413;-87
2022/09/06 00:53:42;;;;;;;1.90;1.00;;;8.70;99.90;;;;;;4921837;29;20483;-87
2022/09/06 00:56:10;;;;;;;2.10;0.90;;;8.70;99.90;;;;;;4924229;29;20407;-86
2022/09/06 00:58:38;;;;;;;1.70;0.90;;;8.70;99.90;;;;;;4942530;28;20935;-87
2022/09/06 01:01:06;;;;;;;3.25;0.98;;;8.70;99.90;;;;;;4924523;29;20974;-87
2022/09/06 01:03:35;;;;;;;1.67;0.98;;;8.70;99.90;;;;;;4920825;29;20402;-86
2022/09/06 01:06:25;;;;;;;2.95;0.95;;;8.60;99.90;;;;;;4923767;29;20415;-87
2022/09/06 01:09:01;;;;;;;1.63;0.83;;;8.60;99.90;;;;;;4947389;29;20401;-87
2022/09/06 01:12:08;;;;;;;1.45;0.85;;;8.60;99.90;;;;;;4922795;29;20929;-87
2022/09/06 01:14:45;;;;;;;2.63;0.80;;;8.60;99.90;;;;;;4922749;29;20424;-86
2022/09/06 01:17:19;;;;;;;1.57;1.00;;;8.60;99.90;;;;;;4932462;28;20415;-87
2022/09/06 01:19:56;;;;;;;1.43;0.90;;;8.60;99.90;;;;;;4920840;29;20455;-85
2022/09/06 01:22:30;;;;;;;1.23;0.80;;;8.60;99.90;;;;;;4940439;28;20465;-86
2022/09/06 01:24:58;;;;;;;2.30;0.90;;;8.60;99.90;;;;;;4924489;29;20921;-85
2022/09/06 01:27:42;;;;;;;2.15;0.98;;;8.60;99.90;;;;;;4932430;29;20501;-86
2022/09/06 01:30:13;;;;;;;1.20;0.90;;;8.60;99.90;;;;;;4926058;29;20397;-86
2022/09/06 01:32:52;;;;;;;2.30;0.93;;;8.60;99.90;;;;;;4930250;29;20504;-87
2022/09/06 01:35:34;;;;;;;2.20;0.75;;;8.60;99.90;;;;;;4933783;29;20413;-86
2022/09/06 01:38:03;;;;;;;2.20;1.10;;;8.60;99.90;;;;;;4938602;29;20927;-87
2022/09/06 01:40:35;;;;;;;2.85;0.85;;;8.60;99.90;;;;;;4932486;29;20453;-87
2022/09/06 01:43:07;;;;;;;2.00;0.88;;;8.50;99.90;;;;;;4938482;29;20466;-87
2022/09/06 01:45:53;;;;;;;1.95;1.00;;;8.50;99.90;;;;;;4940197;29;20414;-87
2022/09/06 01:48:52;;;;;;;2.10;1.00;;;8.50;99.90;;;;;;4930005;29;20445;-85
2022/09/06 01:51:31;;;;;;;1.15;0.90;;;8.50;99.90;;;;;;4933857;29;20884;-86
2022/09/06 01:54:36;;;;;;;1.40;0.87;;;8.50;99.90;;;;;;4917577;29;20408;-85
2022/09/06 01:57:47;;;;;;;1.27;0.90;;;8.50;99.90;;;;;;4931875;29;20920;-87
2022/09/06 02:00:18;;;;;;;2.53;0.90;;;8.50;99.90;;;;;;4928046;29;20390;-87
2022/09/06 02:03:04;;;;;;;3.00;1.00;;;8.50;99.90;;;;;;4922128;29;20412;-87
2022/09/06 02:05:40;;;;;;;1.35;0.85;;;8.50;99.90;;;;;;4920910;29;20502;-87
2022/09/06 02:08:13;;;;;;;2.13;0.98;;;8.50;99.90;;;;;;4931285;29;20464;-87
2022/09/06 02:11:01;;;;;;;1.70;0.90;;;8.50;99.90;;;;;;4932340;29;20932;-87
2022/09/06 02:13:40;;;;;;;0.98;0.70;;;8.40;99.90;;;;;;4948280;28;20417;-86
2022/09/06 02:16:12;;;;;;;1.55;0.80;;;8.50;99.90;;;;;;4924411;29;20465;-87
2022/09/06 02:18:50;;;;;;;1.83;0.90;;;8.50;99.90;;;;;;4930106;29;20979;-87
2022/09/06 02:21:21;;;;;;;0.95;0.80;;;8.40;99.90;;;;;;4930600;29;20417;-87
2022/09/06 02:23:51;;;;;;;1.40;0.90;;;8.50;99.90;;;;;;4920408;29;20499;-87
2022/09/06 02:26:24;;;;;;;1.53;1.00;;;8.40;99.90;;;;;;4944550;29;20505;-87
2022/09/06 02:28:52;;;;;;;3.33;0.90;;;8.40;99.90;;;;;;4937168;29;20869;-87
2022/09/06 02:31:52;;;;;;;2.75;1.13;;;8.40;99.90;;;;;;4928536;29;20409;-87
2022/09/06 02:34:21;;;;;;;1.27;0.90;;;8.40;99.90;;;;;;4927884;29;20452;-87
2022/09/06 02:36:49;;;;;;;1.30;1.00;;;8.40;99.90;;;;;;4941852;29;20405;-87
2022/09/06 02:39:17;;;;;;;1.48;1.15;;;8.40;99.90;;;;;;4942707;29;20409;-87
2022/09/06 02:41:46;;;;;;;2.17;1.10;;;8.40;99.90;;;;;;4932999;29;20892;-87
2022/09/06 02:44:14;;;;;;;1.45;1.00;;;8.30;99.90;;;;;;4937015;29;20485;-86
2022/09/06 02:46:42;;;;;;;2.47;1.40;;;8.40;99.90;;;;;;4932686;29;20440;-87
2022/09/06 02:49:10;;;;;;;2.03;1.00;;;8.30;99.90;;;;;;4939431;28;20939;-87
2022/09/06 02:51:38;;;;;;;2.20;1.10;;;8.30;99.90;;;;;;4930169;29;20417;-86
2022/09/06 02:54:06;;;;;;;1.80;1.10;;;8.30;99.90;;;;;;4926154;29;20680;-86
2022/09/06 02:56:35;;;;;;;1.45;1.00;;;8.30;99.90;;;;;;4926863;29;20415;-86
2022/09/06 02:59:04;;;;;;;1.70;1.10;;;8.30;99.90;;;;;;4933588;29;20421;-86
2022/09/06 03:01:32;;;;;;;2.78;1.10;;;8.30;99.90;;;;;;4932658;29;20972;-86
2022/09/06 03:04:01;;;;;;;1.83;1.10;;;8.40;99.90;;;;;;4945525;29;20421;-86
2022/09/06 03:06:29;;;;;;;1.40;1.00;;;8.30;99.90;;;;;;4929592;29;20410;-85
2022/09/06 03:08:58;;;;;;;2.13;1.08;;;8.30;99.90;;;;;;4935017;29;20517;-87
2022/09/06 03:11:27;;;;;;;1.87;1.00;;;8.30;99.90;;;;;;4941108;29;20555;-86
2022/09/06 03:13:55;;;;;;;1.52;1.02;;;8.30;99.90;;;;;;4935174;29;20440;-86
2022/09/06 03:16:23;;;;;;;2.93;1.00;;;8.30;99.90;;;;;;4921607;29;20408;-86
2022/09/06 03:18:50;;;;;;;1.98;1.00;;;8.30;99.90;;;;;;4932985;29;20421;-87
2022/09/06 03:21:18;;;;;;;2.40;1.20;;;8.30;99.90;;;;;;4934812;29;20474;-87
2022/09/06 03:23:46;;;;;;;3.38;1.30;;;8.30;99.90;;;;;;4929151;29;20438;-87
2022/09/06 03:26:14;;;;;;;2.10;1.10;;;8.30;99.90;;;;;;4928932;29;20410;-86
2022/09/06 03:28:42;;;;;;;3.20;1.45;;;8.30;99.90;;;;;;4937548;29;20510;-85
2022/09/06 03:31:10;;;;;;;2.88;0.90;;;8.30;99.90;;;;;;4933883;29;20513;-87
2022/09/06 03:33:37;;;;;;;2.80;1.20;;;8.30;99.90;;;;;;4929054;29;20430;-86
2022/09/06 03:36:05;;;;;;;1.85;1.05;;;8.30;99.90;;;;;;4927973;29;20470;-87
2022/09/06 03:38:33;;;;;;;2.42;1.08;;;8.30;99.90;;;;;;4934900;29;20476;-86
2022/09/06 03:41:01;;;;;;;1.65;1.05;;;8.30;99.90;;;;;;4940685;29;20959;-86
2022/09/06 03:43:30;;;;;;;2.20;0.90;;;8.30;99.90;;;;;;4928926;29;20414;-86
2022/09/06 03:45:58;;;;;;;2.40;1.00;;;8.30;99.90;;;;;;4917353;29;20406;-86
2022/09/06 03:48:28;;;;;;;1.53;0.83;;;8.30;99.90;;;;;;4935507;29;20413;-86
2022/09/06 03:50:58;;;;;;;1.92;1.10;;;8.30;99.90;;;;;;4928754;29;20441;-86
2022/09/06 03:53:27;;;;;;;1.70;1.00;;;8.20;99.90;;;;;;4923571;29;20509;-86
2022/09/06 03:55:57;;;;;;;1.50;1.05;;;8.20;99.90;;;;;;4921666;29;20413;-87
2022/09/06 03:58:29;;;;;;;2.08;1.23;;;8.20;99.90;;;;;;4912621;29;20412;-86
2022/09/06 04:01:02;;;;;;;1.23;0.90;;;8.20;99.90;;;;;;4930098;29;20908;-85
2022/09/06 04:03:31;;;;;;;1.80;1.00;;;8.20;99.90;;;;;;4934867;29;20414;-87
2022/09/06 04:05:59;;;;;;;1.40;1.00;;;8.20;99.90;;;;;;4933839;29;20405;-86
2022/09/06 04:08:27;;;;;;;1.17;0.80;;;8.20;99.90;;;;;;4925432;29;20468;-86
2022/09/06 04:10:56;;;;;;;2.08;1.00;;;8.20;99.90;;;;;;4935124;29;20430;-87
2022/09/06 04:13:25;;;;;;;3.67;1.00;;;8.20;99.90;;;;;;4925538;29;20823;-87
2022/09/06 04:15:53;;;;;;;4.80;1.30;;;8.20;99.90;;;;;;4930363;29;20484;-85
2022/09/06 04:18:22;;;;;;;2.05;0.93;;;8.20;99.90;;;;;;4944697;28;20771;-86
2022/09/06 04:20:51;;;;;;;1.88;1.00;;;8.20;99.90;;;;;;4928479;29;20420;-86
2022/09/06 04:23:20;;;;;;;1.88;1.00;;;8.20;99.90;;;;;;4916175;29;20479;-87
2022/09/06 04:25:49;;;;;;;2.60;1.05;;;8.20;99.90;;;;;;4929977;29;20396;-86
2022/09/06 04:28:18;;;;;;;2.08;1.20;;;8.20;99.90;;;;;;4934928;29;20405;-87
2022/09/06 04:30:52;;;;;;;2.47;1.10;;;8.20;99.90;;;;;;4928212;29;20409;-86
2022/09/06 04:33:24;;;;;;;1.95;1.00;;;8.30;99.90;;;;;;4927957;29;20414;-87
2022/09/06 04:35:55;;;;;;;1.30;1.03;;;8.20;99.90;;;;;;4923909;29;20507;-86
2022/09/06 04:38:25;;;;;;;2.63;1.13;;;8.20;99.90;;;;;;4934067;29;20417;-88
2022/09/06 04:40:54;;;;;;;2.15;0.90;;;8.20;99.90;;;;;;4925923;29;20415;-88
2022/09/06 04:43:22;;;;;;;4.32;1.20;;;8.20;99.90;;;;;;4946021;28;20432;-86
2022/09/06 04:45:50;;;;;;;2.92;1.13;;;8.30;99.90;;;;;;4930845;29;20909;-86
2022/09/06 04:48:18;;;;;;;2.30;1.15;;;8.30;99.90;;;;;;4931942;29;20498;-87
2022/09/06 04:50:46;;;;;;;3.50;1.23;;;8.30;99.90;;;;;;4946444;29;20439;-87
2022/09/06 04:53:14;;;;;;;1.27;1.00;;;8.30;99.90;;;;;;4922628;29;20494;-87
2022/09/06 04:55:42;;;;;;;1.20;0.90;;;8.30;99.90;;;;;;4924715;29;20409;-86
2022/09/06 04:58:09;;;;;;;2.90;1.20;;;8.40;99.90;;;;;;4924403;29;20414;-87
2022/09/06 05:00:37;;;;;;;2.28;1.00;;;8.40;99.90;;;;;;4930831;29;20482;-86
2022/09/06 05:03:05;;;;;;;1.65;1.00;;;8.40;99.90;;;;;;4933110;29;20425;-87
2022/09/06 05:05:33;;;;;;;2.60;1.00;;;8.40;99.90;;;;;;4923125;29;20410;-85
2022/09/06 05:08:00;;;;;;;1.60;0.98;;;8.40;99.90;;;;;;4924316;29;20896;-87
2022/09/06 05:10:28;;;;;;;1.42;1.08;;;8.40;99.90;;;;;;4938966;29;20457;-88
2022/09/06 05:12:56;;;;;;;2.05;1.20;;;8.40;99.90;;;;;;4934232;29;20414;-87
2022/09/06 05:15:24;;;;;;;1.08;0.80;;;8.40;99.90;;;;;;4924377;29;20418;-87
2022/09/06 05:17:51;;;;;;;1.97;1.20;;;8.40;99.90;;;;;;4934050;29;20413;-87
2022/09/06 05:20:19;;;;;;;2.08;1.10;;;8.40;99.90;;;;;;4938711;29;20424;-88
2022/09/06 05:22:53;;;;;;;1.85;1.10;;;8.40;99.90;;;;;;4921485;29;20532;-87
2022/09/06 05:25:21;;;;;;;2.63;1.17;;;8.50;99.90;;;;;;4913913;29;20902;-88
2022/09/06 05:27:49;;;;;;;2.97;1.63;;;8.50;99.90;;;;;;4925360;29;20516;-87
2022/09/06 05:30:17;;;;;;;2.17;1.23;;;8.50;99.90;;;;;;4925972;29;20509;-86
2022/09/06 05:32:44;;;;;;;3.20;1.30;;;8.50;99.90;;;;;;4920993;29;20415;-86
2022/09/06 05:35:12;;;;;;;2.95;1.90;;;8.50;99.90;;;;;;4924187;29;20401;-85
2022/09/06 05:37:40;;;;;;;3.47;1.58;;;8.50;99.90;;;;;;4939556;29;20404;-85
2022/09/06 05:40:08;;;;;;;2.05;1.00;;;8.50;99.90;;;;;;4916074;29;20396;-85
2022/09/06 05:42:36;;;;;;;1.65;1.13;;;8.50;99.90;;;;;;4933074;29;20797;-85
2022/09/06 05:45:05;;;;;;;1.48;1.00;;;8.60;99.90;;;;;;4933934;29;20410;-85
2022/09/06 05:47:34;;;;;;;1.55;1.05;;;8.60;99.90;;;;;;4933949;29;20497;-85
2022/09/06 05:50:03;;;;;;;2.50;1.20;;;8.60;99.90;;;;;;4934097;29;20485;-84
2022/09/06 05:52:31;;;;;;;1.25;1.13;;;8.60;99.90;;;;;;4934876;29;20652;-85
2022/09/06 05:55:01;;;;;;;1.20;1.00;;;8.60;99.90;;;;;;4931084;29;20653;-86
2022/09/06 05:57:28;;;;;;;1.70;0.90;;;8.70;99.90;;;;;;4937757;29;20405;-85
2022/09/06 05:59:56;;;;;;;1.90;0.90;;;8.70;99.90;;;;;;4937478;29;20436;-85
2022/09/06 06:02:24;;;;;;;1.10;0.90;;;8.70;99.90;;;;;;4926684;29;20417;-83
2022/09/06 06:04:53;;;;;;;1.63;0.88;;;8.70;99.90;;;;;;4927625;29;20437;-85
2022/09/06 06:07:21;;;;;;;1.35;0.85;;;8.70;99.90;;;;;;4931146;29;20814;-85
2022/09/06 06:09:48;;;;;;;1.17;0.90;;;8.80;99.90;;;;;;4937894;29;20408;-85
2022/09/06 06:12:16;;;;;;;1.30;0.80;;;8.80;99.90;;;;;;4930753;29;20512;-85
2022/09/06 06:14:44;;;;;;;0.90;0.77;;;8.80;99.90;;;;;;4926567;29;20411;-86
2022/09/06 06:17:11;;;;;;;0.95;0.80;;;8.80;99.90;;;;;;4924710;29;20423;-85
2022/09/06 06:19:39;;;;;;;1.00;0.80;;;8.90;99.90;;;;;;4942810;28;20426;-84
2022/09/06 06:22:06;;;;;;;1.55;0.70;;;8.90;99.90;;;;;;4951857;28;20480;-84
2022/09/06 06:24:34;;;;;;;0.90;0.70;;;8.90;99.90;;;;;;4934018;29;20412;-84
2022/09/06 06:27:02;;;;;;;0.82;0.73;;;9.10;99.90;;;;;;4935775;29;20417;-86
2022/09/06 06:29:30;;;;;;;1.05;0.85;;;9.10;99.90;;;;;;4917404;29;20407;-85
2022/09/06 06:31:58;;;;;;;0.80;0.70;;;9.10;99.90;;;;;;4927611;29;20420;-85
2022/09/06 06:34:26;;;;;;;0.90;0.70;;;9.10;99.90;;;;;;4936943;29;20409;-86
2022/09/06 06:36:53;;;;;;;0.90;0.65;;;9.20;99.90;;;;;;4937040;29;20445;-85
2022/09/06 06:39:21;;;;;;;0.60;0.60;;;9.30;99.90;;;;;;4926000;29;20497;-85
2022/09/06 06:41:49;;;;;;;1.73;0.90;;;9.30;99.90;;;;;;4943525;29;20453;-85
2022/09/06 06:44:43;;;;;;;0.90;0.60;;;9.30;99.90;;;;;;4936398;29;20390;-85
2022/09/06 06:47:11;;;;;;;1.00;0.73;;;9.20;99.90;;;;;;4928481;29;20454;-83
2022/09/06 06:49:39;;;;;;;1.60;0.93;;;9.20;99.90;;;;;;4944592;29;20780;-85
2022/09/06 06:52:06;;;;;;;1.20;0.70;;;9.20;99.90;;;;;;4927653;29;20445;-86
2022/09/06 06:54:36;;;;;;;2.97;0.97;;;9.20;99.90;;;;;;4923972;29;20480;-85
2022/09/06 06:57:04;;;;;;;0.98;0.88;;;9.20;99.90;;;;;;4936672;29;20409;-85
2022/09/06 06:59:32;;;;;;;1.48;0.90;;;9.20;99.90;;;;;;4936417;29;20472;-85
2022/09/06 07:02:00;;;;;;;1.60;0.90;;;9.30;99.90;;;;;;4935857;28;20473;-85
2022/09/06 07:04:28;;;;;;;0.93;0.80;;;9.20;99.90;;;;;;4935453;29;20417;-85
2022/09/06 07:06:56;;;;;;;1.70;0.80;;;9.20;99.90;;;;;;4936376;29;20925;-85
2022/09/06 07:09:43;;;;;;;1.05;0.77;;;9.20;99.90;;;;;;4935031;28;20504;-85
2022/09/06 07:12:31;;;;;;;1.20;0.70;;;9.40;99.90;;;;;;4936346;29;20413;-84
2022/09/06 07:14:59;;;;;;;1.00;0.70;;;9.40;99.90;;;;;;4936273;29;20468;-84
2022/09/06 07:17:27;;;;;;;0.60;0.60;;;9.60;99.90;;;;;;4936679;29;20401;-85
2022/09/06 07:19:54;;;;;;;0.90;0.60;;;9.70;99.90;;;;;;4936213;29;20446;-84
2022/09/06 07:22:39;;;;;;;1.30;0.87;;;9.60;99.90;;;;;;4932937;29;20409;-84
2022/09/06 07:25:09;;;;;;;1.13;0.70;;;9.60;99.90;;;;;;4935869;29;20469;-83
2022/09/06 07:27:36;;;;;;;0.80;0.75;;;9.60;99.90;;;;;;4936240;29;20409;-85
2022/09/06 07:30:13;;;;;;;0.70;0.70;;;9.60;99.90;;;;;;4936200;29;20445;-85
2022/09/06 07:32:40;;;;;;;0.98;0.77;;;9.60;99.90;;;;;;4930762;29;20452;-85
2022/09/06 07:35:08;;;;;;;1.05;0.70;;;9.60;99.90;;;;;;4924201;29;20508;-85
2022/09/06 07:37:36;;;;;;;1.93;0.70;;;9.70;99.90;;;;;;4924420;29;20509;-84
2022/09/06 07:40:04;;;;;;;1.23;0.60;;;9.80;99.90;;;;;;4930863;29;20767;-85
2022/09/06 07:42:32;;;;;;;0.80;0.70;;;9.80;99.90;;;;;;4928938;28;20425;-85
2022/09/06 07:45:04;;;;;;;1.20;0.93;;;9.90;99.90;;;;;;4924775;29;20414;-85
2022/09/06 07:47:31;;;;;;;0.90;0.80;;;9.80;99.90;;;;;;4920783;29;20499;-85
2022/09/06 07:50:20;;;;;;;1.35;0.82;;;9.80;99.90;;;;;;4946434;28;20418;-84
2022/09/06 07:53:09;;;;;;;1.38;0.80;;;9.70;99.90;;;;;;4929055;29;20410;-85
2022/09/06 07:55:42;;;;;;;1.30;0.90;;;9.70;99.90;;;;;;4931278;29;20417;-84
2022/09/06 07:58:09;;;;;;;1.27;0.73;;;9.70;99.90;;;;;;4943668;29;20410;-82
2022/09/06 08:00:39;;;;;;;1.00;0.70;;;9.80;99.90;;;;;;4935407;29;20409;-83
2022/09/06 08:03:08;;;;;;;0.90;0.70;;;9.80;99.90;;;;;;4924590;29;20499;-85
2022/09/06 08:05:36;;;;;;;0.75;0.57;;;9.80;99.90;;;;;;4924697;29;20410;-85
2022/09/06 08:08:25;;;;;;;2.47;0.80;;;9.90;99.90;;;;;;4927531;29;20439;-85
2022/09/06 08:11:13;;;;;;;11.02;1.13;;;10.00;99.90;;;;;;4934090;29;20979;-83
2022/09/06 08:13:41;;;;;;;0.70;0.70;;;10.10;99.90;;;;;;4935380;29;20412;-85
2022/09/06 08:16:11;;;;;;;1.33;0.75;;;10.30;99.90;;;;;;4934444;29;20394;-84
2022/09/06 08:18:39;;;;;;;2.88;0.60;;;10.20;99.90;;;;;;4916325;29;20403;-83
2022/09/06 08:21:14;;;;;;;0.70;0.60;;;10.10;99.90;;;;;;4932631;29;20418;-84
2022/09/06 08:23:47;;;;;;;1.63;0.60;;;10.00;99.90;;;;;;4928242;29;20418;-84
2022/09/06 08:26:16;;;;;;;0.68;0.50;;;10.00;99.90;;;;;;4923905;29;20410;-85
2022/09/06 08:28:44;;;;;;;0.80;0.60;;;9.90;99.90;;;;;;4923845;29;20812;-85
2022/09/06 08:31:16;;;;;;;0.80;0.60;;;10.00;99.90;;;;;;4933659;29;20497;-85
2022/09/06 08:33:46;;;;;;;0.82;0.50;;;10.10;99.90;;;;;;4939905;29;21333;-85
2022/09/06 08:36:14;;;;;;;0.50;0.40;;;10.10;99.90;;;;;;4923913;29;20455;-85
2022/09/06 08:38:42;;;;;;;0.60;0.50;;;10.20;99.90;;;;;;4926644;29;20414;-84
2022/09/06 08:41:13;;;;;;;0.63;0.50;;;10.20;99.90;;;;;;4923663;29;20461;-83
2022/09/06 08:43:57;;;;;;;0.60;0.50;;;10.20;99.90;;;;;;4940101;29;20402;-83
2022/09/06 08:46:45;;;;;;;0.75;0.50;;;10.20;99.90;;;;;;4927391;29;20401;-84
2022/09/06 08:49:13;;;;;;;0.73;0.50;;;10.20;99.90;;;;;;4934551;29;20913;-84
2022/09/06 08:52:14;;;;;;;0.85;0.50;;;10.20;99.90;;;;;;4934352;29;20434;-83
2022/09/06 08:55:04;;;;;;;0.40;0.40;;;10.20;99.90;;;;;;4922240;29;20534;-85
2022/09/06 08:57:49;;;;;;;0.60;0.50;;;10.20;99.90;;;;;;4926396;29;20413;-83
2022/09/06 09:00:19;;;;;;;0.60;0.52;;;10.10;99.90;;;;;;4939348;29;20983;-84
2022/09/06 09:02:52;;;;;;;0.50;0.40;;;10.10;99.90;;;;;;4923367;29;20416;-84
2022/09/06 09:05:36;;;;;;;1.67;0.47;;;10.20;99.90;;;;;;4924277;29;20414;-84
2022/09/06 09:08:25;;;;;;;0.50;0.50;;;10.20;99.90;;;;;;4926513;29;20430;-84
2022/09/06 09:10:59;;;;;;;2.40;0.60;;;10.30;99.90;;;;;;4938963;29;20410;-84
2022/09/06 09:13:49;;;;;;;1.90;0.50;;;10.40;99.90;;;;;;4923253;29;20460;-84
2022/09/06 09:16:17;;;;;;;0.57;0.50;;;10.50;99.90;;;;;;4924975;29;20422;-85
2022/09/06 09:18:58;;;;;;;0.70;0.50;;;10.80;99.90;;;;;;4924759;29;20403;-83
2022/09/06 09:21:30;;;;;;;0.80;0.50;;;11.00;99.90;;;;;;4917585;29;20907;-85
2022/09/06 09:24:03;;;;;;;0.52;0.40;;;11.10;99.90;;;;;;4923605;29;20410;-82
2022/09/06 09:26:40;;;;;;;1.20;0.50;;;11.30;99.90;;;;;;4926073;29;20485;-84
2022/09/06 09:29:13;;;;;;;1.47;0.70;;;11.30;99.90;;;;;;4923314;29;20406;-84
2022/09/06 09:31:46;;;;;;;0.65;0.50;;;11.50;99.90;;;;;;4923951;29;20867;-84
2022/09/06 09:34:39;;;;;;;1.15;0.60;;;11.40;99.90;;;;;;4940377;29;20418;-82
2022/09/06 09:37:19;;;;;;;1.88;0.50;;;11.20;99.90;;;;;;4932055;29;20473;-84
2022/09/06 09:40:19;;;;;;;0.80;0.50;;;11.10;99.90;;;;;;4923791;29;20776;-84
2022/09/06 09:42:47;;;;;;;4.03;0.70;;;11.00;99.90;;;;;;4927132;29;20401;-85
2022/09/06 09:45:29;;;;;;;4.73;0.90;;;11.10;99.90;;;;;;4924677;29;20422;-86
2022/09/06 09:48:19;;;;;;;2.97;0.50;;;11.00;99.90;;;;;;4922286;29;20909;-86
2022/09/06 09:50:47;;;;;;;0.93;0.60;;;11.00;99.90;;;;;;4914275;29;20729;-87
2022/09/06 09:53:20;;;;;;;0.55;0.43;;;11.00;99.90;;;;;;4948396;29;20394;-85
2022/09/06 09:55:56;;;;;;;1.20;0.70;;;11.30;99.90;;;;;;4927106;29;20913;-84
2022/09/06 09:58:33;;;;;;;0.60;0.50;;;11.50;99.90;;;;;;4932543;29;20441;-84
2022/09/06 10:01:17;;;;;;;0.80;0.50;;;11.50;99.90;;;;;;4938267;29;20417;-83
2022/09/06 10:03:45;;;;;;;1.30;0.50;;;11.60;99.90;;;;;;4932553;29;20409;-85
2022/09/06 10:06:33;;;;;;;1.20;0.50;;;11.60;99.90;;;;;;4926453;29;20940;-83
2022/09/06 10:09:49;;;;;;;0.50;0.50;;;11.80;99.90;;;;;;4945212;29;20895;-83
2022/09/06 10:12:40;;;;;;;0.70;0.50;;;12.00;99.90;;;;;;4947311;28;20800;-83
2022/09/06 10:15:11;;;;;;;0.63;0.45;;;11.80;99.90;;;;;;4929355;29;20490;-83
2022/09/06 10:17:52;;;;;;;1.05;0.40;;;11.80;99.90;;;;;;4932660;29;20461;-83
2022/09/06 10:20:27;;;;;;;0.73;0.50;;;12.20;99.90;;;;;;4931868;29;20469;-84
2022/09/06 10:23:33;;;;;;;1.83;0.50;;;12.40;99.90;;;;;;4928496;29;20421;-84
2022/09/06 10:26:55;;;;;;;1.58;0.63;;;12.20;99.90;;;;;;4930673;29;20489;-83
2022/09/06 10:29:39;;;;;;;1.30;0.40;;;11.90;99.90;;;;;;4929435;29;20441;-84
2022/09/06 10:32:22;;;;;;;0.90;0.60;;;12.00;99.90;;;;;;4922032;29;20429;-84
2022/09/06 10:35:20;;;;;;;0.63;0.50;;;12.00;99.90;;;;;;4936908;29;20409;-83
2022/09/06 10:38:26;;;;;;;1.33;0.57;;;12.00;99.90;;;;;;4923193;29;20445;-84
2022/09/06 10:40:57;;;;;;;1.20;0.60;;;11.90;99.90;;;;;;4943077;29;20632;-84
2022/09/06 10:43:37;;;;;;;0.90;0.60;;;11.90;99.90;;;;;;4945613;29;20405;-84
2022/09/06 10:46:13;;;;;;;1.02;0.50;;;11.80;99.90;;;;;;4933253;29;20901;-84
2022/09/06 10:48:44;;;;;;;1.40;0.50;;;11.80;99.90;;;;;;4920498;29;20445;-84
2022/09/06 10:51:24;;;;;;;1.67;0.60;;;12.00;99.90;;;;;;4942431;29;20437;-83
2022/09/06 10:54:02;;;;;;;0.50;0.50;;;12.30;99.90;;;;;;4929455;29;20490;-83
2022/09/06 10:56:57;;;;;;;0.50;0.50;;;12.60;99.90;;;;;;4912057;29;20982;-84
2022/09/06 10:59:46;;;;;;;1.00;0.50;;;12.70;99.90;;;;;;4930065;29;20542;-84
2022/09/06 11:02:44;;;;;;;0.50;0.50;;;13.00;99.90;;;;;;4928326;29;20402;-84
2022/09/06 11:05:24;;;;;;;2.70;0.50;;;12.90;99.90;;;;;;4946985;29;20450;-83
2022/09/06 11:08:21;;;;;;;1.63;0.50;;;12.70;99.90;;;;;;4939657;29;20489;-83
2022/09/06 11:11:45;;;;;;;0.80;0.60;;;12.50;99.90;;;;;;4927566;29;20414;-83
2022/09/06 11:14:14;;;;;;;1.00;0.50;;;12.40;99.90;;;;;;4922114;29;20477;-83
2022/09/06 11:17:00;;;;;;;1.77;0.70;;;12.40;99.90;;;;;;4934940;29;20445;-84
2022/09/06 11:19:40;;;;;;;1.63;0.70;;;12.30;99.90;;;;;;4920119;29;20781;-84
2022/09/06 11:22:19;;;;;;;0.87;0.60;;;12.60;99.90;;;;;;4926445;29;20944;-84
2022/09/06 11:25:20;;;;;;;0.75;0.50;;;13.00;99.90;;;;;;4930528;29;21008;-84
2022/09/06 11:27:53;;;;;;;1.15;0.50;;;13.20;99.90;;;;;;4935187;29;20398;-83
2022/09/06 11:30:26;;;;;;;1.60;0.70;;;13.00;99.90;;;;;;4924171;29;20433;-85
2022/09/06 11:33:21;;;;;;;3.05;0.75;;;12.80;99.90;;;;;;4935806;29;20959;-84
2022/09/06 11:35:50;;;;;;;1.40;0.60;;;12.60;99.90;;;;;;4925444;29;20410;-84
2022/09/06 11:38:26;;;;;;;1.45;0.55;;;12.50;99.90;;;;;;4935742;29;20406;-84
2022/09/06 11:41:00;;;;;;;1.35;0.55;;;12.40;99.90;;;;;;4924851;29;20420;-84
2022/09/06 11:43:48;;;;;;;1.30;0.50;;;12.60;99.90;;;;;;4934425;29;20417;-84
2022/09/06 11:46:34;;;;;;;0.70;0.60;;;12.60;99.90;;;;;;4935651;29;20394;-84
2022/09/06 11:49:26;;;;;;;1.05;0.68;;;12.50;99.90;;;;;;4925337;29;20389;-83
2022/09/06 11:51:54;;;;;;;1.10;0.60;;;12.40;99.90;;;;;;4930969;29;20410;-83
2022/09/06 11:54:29;;;;;;;2.15;0.57;;;12.40;99.90;;;;;;4935718;29;20410;-84
2022/09/06 11:57:21;;;;;;;1.90;0.70;;;12.40;99.90;;;;;;4935383;29;20420;-84
2022/09/06 12:00:01;;;;;;;1.45;0.60;;;12.40;99.90;;;;;;4930221;29;20443;-84
2022/09/06 12:02:39;;;;;;;0.50;0.50;;;12.40;99.90;;;;;;4935203;29;20402;-84
2022/09/06 12:05:53;;;;;;;1.45;0.57;;;12.50;99.90;;;;;;4934257;29;20892;-84
2022/09/06 12:08:32;;;;;;;2.13;0.63;;;12.70;99.90;;;;;;4931843;29;20915;-84
2022/09/06 12:11:03;;;;;;;1.15;0.50;;;13.00;99.90;;;;;;4930943;28;20498;-84
2022/09/06 12:13:40;;;;;;;1.80;0.50;;;13.30;99.90;;;;;;4933585;29;20394;-82
2022/09/06 12:16:09;;;;;;;1.08;0.50;;;13.50;99.90;;;;;;4933761;29;20756;-84
2022/09/06 12:18:46;;;;;;;1.80;0.57;;;13.50;99.90;;;;;;4935391;29;20414;-84
2022/09/06 12:21:37;;;;;;;1.58;0.60;;;13.40;99.90;;;;;;4928991;29;20931;-84
2022/09/06 12:24:34;;;;;;;1.90;0.70;;;13.40;99.90;;;;;;4925400;29;20477;-84
2022/09/06 12:27:22;;;;;;;1.00;0.50;;;13.50;99.90;;;;;;4923704;29;20414;-84
2022/09/06 12:29:53;;;;;;;0.88;0.50;;;13.80;99.90;;;;;;4923896;29;20422;-83
2022/09/06 12:32:26;;;;;;;1.37;0.60;;;14.00;99.90;;;;;;4922918;29;20478;-85
2022/09/06 12:34:56;;;;;;;0.90;0.50;;;14.20;99.90;;;;;;4933646;29;20776;-84
2022/09/06 12:37:58;;;;;;;1.70;0.70;;;14.00;99.90;;;;;;4934601;29;20983;-84
2022/09/06 12:40:30;;;;;;;1.60;0.60;;;13.80;99.90;;;;;;4934482;29;21084;-84
2022/09/06 12:42:59;;;;;;;2.33;0.82;;;13.90;99.90;;;;;;4938224;29;20420;-84
2022/09/06 12:45:26;;;;;;;2.50;0.70;;;14.10;99.90;;;;;;4934896;29;20394;-84
2022/09/06 12:48:10;;;;;;;3.53;0.80;;;14.00;99.90;;;;;;4934443;29;20746;-83
2022/09/06 12:50:39;;;;;;;1.05;0.70;;;14.00;99.90;;;;;;4932595;29;20425;-83
2022/09/06 12:53:23;;;;;;;1.10;0.70;;;14.10;99.90;;;;;;4930862;29;20466;-84
2022/09/06 12:56:03;;;;;;;1.95;0.63;;;14.20;99.90;;;;;;4934406;29;20414;-83
2022/09/06 12:58:33;;;;;;;0.75;0.60;;;14.30;99.90;;;;;;4934372;29;20421;-85
2022/09/06 13:01:30;;;;;;;1.52;0.80;;;14.30;99.90;;;;;;4934322;29;20465;-84
2022/09/06 13:04:04;;;;;;;2.28;0.80;;;14.40;99.90;;;;;;4931138;29;20492;-84
2022/09/06 13:06:40;;;;;;;1.27;0.80;;;14.20;99.90;;;;;;4934275;29;20402;-85
2022/09/06 13:09:13;;;;;;;0.80;0.60;;;14.00;99.90;;;;;;4949403;29;20884;-84
2022/09/06 13:11:47;;;;;;;2.53;0.77;;;13.80;99.90;;;;;;4934215;29;20398;-84
2022/09/06 13:14:35;;;;;;;0.98;0.70;;;13.70;99.90;;;;;;4927416;29;20995;-85
2022/09/06 13:17:03;;;;;;;2.30;0.80;;;14.00;99.90;;;;;;4934060;29;20414;-83
2022/09/06 13:19:34;;;;;;;1.50;0.70;;;13.80;99.90;;;;;;4933933;29;20414;-85
2022/09/06 13:22:06;;;;;;;2.60;0.83;;;14.00;99.90;;;;;;4924271;29;20450;-84
2022/09/06 13:24:34;;;;;;;3.15;0.93;;;14.20;99.90;;;;;;4933461;29;20745;-86
2022/09/06 13:27:23;;;;;;;2.20;1.00;;;14.30;99.90;;;;;;4931911;29;20394;-89
2022/09/06 13:30:00;;;;;;;2.03;1.02;;;14.40;99.90;;;;;;4934412;29;20406;-87
2022/09/06 13:32:28;;;;;;;1.85;1.00;;;14.60;99.90;;;;;;4934717;29;20400;-84